Handan Airport


Codes: ZBHD/HDG
Name: Handan Airport
City: Handan
Country: China
Elevation: 229 ft.
Wikipedia:

Photos at Handan Airport


   Photos courtesy of SpottingLog. You can add your own sightings and photos by signing up for a free trial today.



No photos found.

Weather at Handan Airport


Time (UTC)DescriptionTempratureWindCloud coverageVisibilityPressureHumidity
16-Jun-2024 12:00Light Rain32°C7 mph, SW100%10000m1004hPa40%
16-Jun-2024 15:00Overcast Clouds29°C7 mph, S100%10000m1005hPa50%
16-Jun-2024 18:00Overcast Clouds26°C4 mph, S100%10000m1005hPa63%
16-Jun-2024 21:00Broken Clouds25°C4 mph, SW54%10000m1005hPa58%
17-Jun-2024 00:00Scattered Clouds30°C4 mph, SW27%10000m1005hPa41%
17-Jun-2024 03:00Clear Sky36°C4 mph, SW0%10000m1004hPa25%
17-Jun-2024 06:00Clear Sky39°C2 mph, NE0%10000m1001hPa16%
17-Jun-2024 09:00Clear Sky39°C2 mph, NE2%10000m1000hPa14%
17-Jun-2024 12:00Clear Sky35°C13 mph, S1%10000m1000hPa23%
17-Jun-2024 15:00Clear Sky32°C13 mph, S5%10000m1002hPa31%
17-Jun-2024 18:00Clear Sky30°C9 mph, SW4%10000m1002hPa37%
17-Jun-2024 21:00Scattered Clouds27°C7 mph, SW36%10000m1002hPa44%
18-Jun-2024 00:00Broken Clouds31°C13 mph, S53%10000m1003hPa35%
18-Jun-2024 03:00Overcast Clouds37°C16 mph, S100%10000m1002hPa19%
18-Jun-2024 06:00Overcast Clouds36°C18 mph, S100%10000m1001hPa21%
18-Jun-2024 09:00Overcast Clouds36°C20 mph, S100%10000m998hPa22%
18-Jun-2024 12:00Overcast Clouds33°C11 mph, S100%10000m999hPa33%
18-Jun-2024 15:00Broken Clouds30°C9 mph, S84%10000m1001hPa40%
18-Jun-2024 18:00Broken Clouds28°C7 mph, SW83%10000m1001hPa44%
18-Jun-2024 21:00Few Clouds26°C7 mph, S17%10000m1001hPa45%
19-Jun-2024 00:00Broken Clouds31°C11 mph, S54%10000m1001hPa38%
19-Jun-2024 03:00Overcast Clouds36°C11 mph, S89%10000m1000hPa24%
19-Jun-2024 06:00Broken Clouds39°C13 mph, S63%10000m998hPa20%
19-Jun-2024 09:00Broken Clouds38°C9 mph, S72%10000m996hPa19%
19-Jun-2024 12:00Scattered Clouds34°C9 mph, SE36%10000m996hPa21%
19-Jun-2024 15:00Clear Sky31°C7 mph, SE0%10000m997hPa22%
19-Jun-2024 18:00Clear Sky30°C7 mph, S4%10000m998hPa50%
19-Jun-2024 21:00Few Clouds28°C9 mph, S13%10000m998hPa58%
20-Jun-2024 00:00Scattered Clouds32°C11 mph, S39%10000m1000hPa50%
20-Jun-2024 03:00Overcast Clouds37°C9 mph, S99%10000m999hPa34%
20-Jun-2024 06:00Light Rain34°C18 mph, NE99%10000m998hPa35%
20-Jun-2024 09:00Light Rain33°C13 mph, NE100%10000m998hPa33%
20-Jun-2024 12:00Overcast Clouds31°C4 mph, N100%10000m999hPa35%
20-Jun-2024 15:00Overcast Clouds29°C4 mph, NE100%10000m1000hPa43%
20-Jun-2024 18:00Overcast Clouds28°C2 mph, N96%10000m999hPa52%
20-Jun-2024 21:00Overcast Clouds27°C0 mph, E100%10000m999hPa52%
21-Jun-2024 00:00Broken Clouds32°C2 mph, S64%10000m999hPa39%
21-Jun-2024 03:00Scattered Clouds38°C7 mph, S47%10000m998hPa30%
21-Jun-2024 06:00Broken Clouds41°C9 mph, S73%10000m995hPa21%
21-Jun-2024 09:00Overcast Clouds40°C16 mph, S100%10000m994hPa24%